sensor_id;sensor_type;location;lat;lon;timestamp;temperature;humidity
14527;DHT22;7350;51.208;4.238;2022-12-07T00:01:04;5.70;99.90
14527;DHT22;7350;51.208;4.238;2022-12-07T00:03:32;5.90;99.90
14527;DHT22;7350;51.208;4.238;2022-12-07T00:06:01;6.10;99.90
14527;DHT22;7350;51.208;4.238;2022-12-07T00:08:28;5.90;99.90
14527;DHT22;7350;51.208;4.238;2022-12-07T00:11:01;5.90;99.90
14527;DHT22;7350;51.208;4.238;2022-12-07T00:13:29;5.80;99.90
14527;DHT22;7350;51.208;4.238;2022-12-07T00:16:00;5.80;99.90
14527;DHT22;7350;51.208;4.238;2022-12-07T00:18:27;5.60;99.90
14527;DHT22;7350;51.208;4.238;2022-12-07T00:21:00;5.70;99.90
14527;DHT22;7350;51.208;4.238;2022-12-07T00:23:28;6.00;99.90
14527;DHT22;7350;51.208;4.238;2022-12-07T00:25:55;5.80;99.90
14527;DHT22;7350;51.208;4.238;2022-12-07T00:28:22;5.70;99.90
14527;DHT22;7350;51.208;4.238;2022-12-07T00:30:48;5.60;99.90
14527;DHT22;7350;51.208;4.238;2022-12-07T00:33:15;5.50;99.90
14527;DHT22;7350;51.208;4.238;2022-12-07T00:35:42;5.60;99.90
14527;DHT22;7350;51.208;4.238;2022-12-07T00:38:11;5.70;99.90
14527;DHT22;7350;51.208;4.238;2022-12-07T00:40:38;5.80;99.90
14527;DHT22;7350;51.208;4.238;2022-12-07T00:43:05;5.70;99.90
14527;DHT22;7350;51.208;4.238;2022-12-07T00:45:31;5.20;99.90
14527;DHT22;7350;51.208;4.238;2022-12-07T00:47:58;5.00;99.90
14527;DHT22;7350;51.208;4.238;2022-12-07T00:50:25;5.10;99.90
14527;DHT22;7350;51.208;4.238;2022-12-07T00:52:52;5.20;99.90
14527;DHT22;7350;51.208;4.238;2022-12-07T00:55:21;5.40;99.90
14527;DHT22;7350;51.208;4.238;2022-12-07T00:57:47;5.70;99.90
14527;DHT22;7350;51.208;4.238;2022-12-07T01:00:16;5.90;99.90
14527;DHT22;7350;51.208;4.238;2022-12-07T01:02:43;5.90;99.90
14527;DHT22;7350;51.208;4.238;2022-12-07T01:05:10;5.90;99.90
14527;DHT22;7350;51.208;4.238;2022-12-07T01:07:37;5.80;99.90
14527;DHT22;7350;51.208;4.238;2022-12-07T01:10:05;5.60;99.90
14527;DHT22;7350;51.208;4.238;2022-12-07T01:12:33;5.60;99.90
14527;DHT22;7350;51.208;4.238;2022-12-07T01:15:00;5.40;99.90
14527;DHT22;7350;51.208;4.238;2022-12-07T01:17:28;5.40;99.90
14527;DHT22;7350;51.208;4.238;2022-12-07T01:19:55;5.40;99.90
14527;DHT22;7350;51.208;4.238;2022-12-07T01:22:22;5.60;99.90
14527;DHT22;7350;51.208;4.238;2022-12-07T01:24:49;5.50;99.90
14527;DHT22;7350;51.208;4.238;2022-12-07T01:27:16;5.40;99.90
14527;DHT22;7350;51.208;4.238;2022-12-07T01:29:44;5.40;99.90
14527;DHT22;7350;51.208;4.238;2022-12-07T01:32:11;5.50;99.90
14527;DHT22;7350;51.208;4.238;2022-12-07T01:34:38;5.60;99.90
14527;DHT22;7350;51.208;4.238;2022-12-07T01:37:05;5.50;99.90
14527;DHT22;7350;51.208;4.238;2022-12-07T01:39:32;5.50;99.90
14527;DHT22;7350;51.208;4.238;2022-12-07T01:41:59;5.40;99.90
14527;DHT22;7350;51.208;4.238;2022-12-07T01:44:27;5.20;99.90
14527;DHT22;7350;51.208;4.238;2022-12-07T01:46:58;5.40;99.90
14527;DHT22;7350;51.208;4.238;2022-12-07T01:49:29;5.40;99.90
14527;DHT22;7350;51.208;4.238;2022-12-07T01:52:03;5.40;99.90
14527;DHT22;7350;51.208;4.238;2022-12-07T01:54:35;5.40;99.90
14527;DHT22;7350;51.208;4.238;2022-12-07T01:57:03;5.40;99.90
14527;DHT22;7350;51.208;4.238;2022-12-07T01:59:30;5.50;99.90
14527;DHT22;7350;51.208;4.238;2022-12-07T02:01:58;5.60;99.90
14527;DHT22;7350;51.208;4.238;2022-12-07T02:04:29;5.80;99.90
14527;DHT22;7350;51.208;4.238;2022-12-07T02:06:56;5.70;99.90
14527;DHT22;7350;51.208;4.238;2022-12-07T02:09:23;5.80;99.90
14527;DHT22;7350;51.208;4.238;2022-12-07T02:11:50;5.90;99.90
14527;DHT22;7350;51.208;4.238;2022-12-07T02:14:18;6.00;99.90
14527;DHT22;7350;51.208;4.238;2022-12-07T02:16:53;6.20;99.90
14527;DHT22;7350;51.208;4.238;2022-12-07T02:19:50;6.00;99.90
14527;DHT22;7350;51.208;4.238;2022-12-07T02:22:41;6.00;99.90
14527;DHT22;7350;51.208;4.238;2022-12-07T02:25:16;6.20;99.90
14527;DHT22;7350;51.208;4.238;2022-12-07T02:27:50;6.30;99.90
14527;DHT22;7350;51.208;4.238;2022-12-07T02:30:22;6.30;99.90
14527;DHT22;7350;51.208;4.238;2022-12-07T02:32:56;6.10;99.90
14527;DHT22;7350;51.208;4.238;2022-12-07T02:35:28;6.10;99.90
14527;DHT22;7350;51.208;4.238;2022-12-07T02:38:01;6.00;99.90
14527;DHT22;7350;51.208;4.238;2022-12-07T02:40:33;6.20;99.90
14527;DHT22;7350;51.208;4.238;2022-12-07T02:43:06;6.20;99.90
14527;DHT22;7350;51.208;4.238;2022-12-07T02:45:39;6.20;99.90
14527;DHT22;7350;51.208;4.238;2022-12-07T02:48:08;5.80;99.90
14527;DHT22;7350;51.208;4.238;2022-12-07T02:50:36;5.50;99.90
14527;DHT22;7350;51.208;4.238;2022-12-07T02:53:03;5.50;99.90
14527;DHT22;7350;51.208;4.238;2022-12-07T02:55:34;5.60;99.90
14527;DHT22;7350;51.208;4.238;2022-12-07T02:58:18;5.70;99.90
14527;DHT22;7350;51.208;4.238;2022-12-07T03:00:54;5.50;99.90
14527;DHT22;7350;51.208;4.238;2022-12-07T03:03:24;5.80;99.90
14527;DHT22;7350;51.208;4.238;2022-12-07T03:06:04;6.20;99.90
14527;DHT22;7350;51.208;4.238;2022-12-07T03:08:38;6.10;99.90
14527;DHT22;7350;51.208;4.238;2022-12-07T03:11:12;6.20;99.90
14527;DHT22;7350;51.208;4.238;2022-12-07T03:13:42;6.10;99.90
14527;DHT22;7350;51.208;4.238;2022-12-07T03:16:15;5.80;99.90
14527;DHT22;7350;51.208;4.238;2022-12-07T03:18:46;5.50;99.90
14527;DHT22;7350;51.208;4.238;2022-12-07T03:21:17;5.50;99.90
14527;DHT22;7350;51.208;4.238;2022-12-07T03:23:46;5.50;99.90
14527;DHT22;7350;51.208;4.238;2022-12-07T03:26:17;5.50;99.90
14527;DHT22;7350;51.208;4.238;2022-12-07T03:28:51;5.50;99.90
14527;DHT22;7350;51.208;4.238;2022-12-07T03:31:22;5.50;99.90
14527;DHT22;7350;51.208;4.238;2022-12-07T03:33:56;5.20;99.90
14527;DHT22;7350;51.208;4.238;2022-12-07T03:36:29;5.10;99.90
14527;DHT22;7350;51.208;4.238;2022-12-07T03:39:02;5.10;99.90
14527;DHT22;7350;51.208;4.238;2022-12-07T03:41:31;5.00;99.90
14527;DHT22;7350;51.208;4.238;2022-12-07T03:44:00;5.10;99.90
14527;DHT22;7350;51.208;4.238;2022-12-07T03:46:34;5.40;99.90
14527;DHT22;7350;51.208;4.238;2022-12-07T03:49:07;5.50;99.90
14527;DHT22;7350;51.208;4.238;2022-12-07T03:51:40;5.60;99.90
14527;DHT22;7350;51.208;4.238;2022-12-07T03:54:13;5.60;99.90
14527;DHT22;7350;51.208;4.238;2022-12-07T03:56:43;5.50;99.90
14527;DHT22;7350;51.208;4.238;2022-12-07T03:59:11;5.60;99.90
14527;DHT22;7350;51.208;4.238;2022-12-07T04:01:43;5.50;99.90
14527;DHT22;7350;51.208;4.238;2022-12-07T04:04:10;5.60;99.90
14527;DHT22;7350;51.208;4.238;2022-12-07T04:06:37;5.70;99.90
14527;DHT22;7350;51.208;4.238;2022-12-07T04:09:04;5.80;99.90
14527;DHT22;7350;51.208;4.238;2022-12-07T04:11:31;5.60;99.90
14527;DHT22;7350;51.208;4.238;2022-12-07T04:13:58;5.40;99.90
14527;DHT22;7350;51.208;4.238;2022-12-07T04:16:43;5.50;99.90
14527;DHT22;7350;51.208;4.238;2022-12-07T04:19:10;5.50;99.90
14527;DHT22;7350;51.208;4.238;2022-12-07T04:21:38;5.50;99.90
14527;DHT22;7350;51.208;4.238;2022-12-07T04:24:05;5.50;99.90
14527;DHT22;7350;51.208;4.238;2022-12-07T04:26:32;5.30;99.90
14527;DHT22;7350;51.208;4.238;2022-12-07T04:28:59;5.20;99.90
14527;DHT22;7350;51.208;4.238;2022-12-07T04:31:26;5.10;99.90
14527;DHT22;7350;51.208;4.238;2022-12-07T04:33:55;5.10;99.90
14527;DHT22;7350;51.208;4.238;2022-12-07T04:36:22;5.10;99.90
14527;DHT22;7350;51.208;4.238;2022-12-07T04:38:49;5.10;99.90
14527;DHT22;7350;51.208;4.238;2022-12-07T04:41:16;4.90;99.90
14527;DHT22;7350;51.208;4.238;2022-12-07T04:43:43;5.00;99.90
14527;DHT22;7350;51.208;4.238;2022-12-07T04:46:10;5.00;99.90
14527;DHT22;7350;51.208;4.238;2022-12-07T04:48:37;5.10;99.90
14527;DHT22;7350;51.208;4.238;2022-12-07T04:51:05;5.20;99.90
14527;DHT22;7350;51.208;4.238;2022-12-07T04:53:32;5.30;99.90
14527;DHT22;7350;51.208;4.238;2022-12-07T04:55:59;5.50;99.90
14527;DHT22;7350;51.208;4.238;2022-12-07T04:58:27;5.60;99.90
14527;DHT22;7350;51.208;4.238;2022-12-07T05:00:55;5.60;99.90
14527;DHT22;7350;51.208;4.238;2022-12-07T05:03:22;5.60;99.90
14527;DHT22;7350;51.208;4.238;2022-12-07T05:05:49;5.60;99.90
14527;DHT22;7350;51.208;4.238;2022-12-07T05:08:18;5.50;99.90
14527;DHT22;7350;51.208;4.238;2022-12-07T05:10:45;5.00;99.90
14527;DHT22;7350;51.208;4.238;2022-12-07T05:13:12;5.00;99.90
14527;DHT22;7350;51.208;4.238;2022-12-07T05:15:38;5.20;99.90
14527;DHT22;7350;51.208;4.238;2022-12-07T05:18:05;5.30;99.90
14527;DHT22;7350;51.208;4.238;2022-12-07T05:20:32;5.40;99.90
14527;DHT22;7350;51.208;4.238;2022-12-07T05:22:59;5.10;99.90
14527;DHT22;7350;51.208;4.238;2022-12-07T05:25:28;5.30;99.90
14527;DHT22;7350;51.208;4.238;2022-12-07T05:27:55;5.30;99.90
14527;DHT22;7350;51.208;4.238;2022-12-07T05:30:22;5.50;99.90
14527;DHT22;7350;51.208;4.238;2022-12-07T05:32:49;5.60;99.90
14527;DHT22;7350;51.208;4.238;2022-12-07T05:35:16;5.70;99.90
14527;DHT22;7350;51.208;4.238;2022-12-07T05:37:43;5.60;99.90
14527;DHT22;7350;51.208;4.238;2022-12-07T05:40:11;5.70;99.90
14527;DHT22;7350;51.208;4.238;2022-12-07T05:42:40;5.80;99.90
14527;DHT22;7350;51.208;4.238;2022-12-07T05:45:09;5.90;99.90
14527;DHT22;7350;51.208;4.238;2022-12-07T05:47:36;5.90;99.90
14527;DHT22;7350;51.208;4.238;2022-12-07T05:50:04;5.80;99.90
14527;DHT22;7350;51.208;4.238;2022-12-07T05:52:32;5.80;99.90
14527;DHT22;7350;51.208;4.238;2022-12-07T05:54:59;5.90;99.90
14527;DHT22;7350;51.208;4.238;2022-12-07T05:57:25;5.90;99.90
14527;DHT22;7350;51.208;4.238;2022-12-07T05:59:54;5.90;99.90
14527;DHT22;7350;51.208;4.238;2022-12-07T06:02:20;5.80;99.90
14527;DHT22;7350;51.208;4.238;2022-12-07T06:04:47;5.90;99.90
14527;DHT22;7350;51.208;4.238;2022-12-07T06:07:15;5.90;99.90
14527;DHT22;7350;51.208;4.238;2022-12-07T06:09:42;6.00;99.90
14527;DHT22;7350;51.208;4.238;2022-12-07T06:12:10;5.90;99.90
14527;DHT22;7350;51.208;4.238;2022-12-07T06:14:56;5.70;99.90
14527;DHT22;7350;51.208;4.238;2022-12-07T06:17:24;5.50;99.90
14527;DHT22;7350;51.208;4.238;2022-12-07T06:19:51;5.70;99.90
14527;DHT22;7350;51.208;4.238;2022-12-07T06:22:18;5.80;99.90
14527;DHT22;7350;51.208;4.238;2022-12-07T06:24:45;5.90;99.90
14527;DHT22;7350;51.208;4.238;2022-12-07T06:27:12;6.00;99.90
14527;DHT22;7350;51.208;4.238;2022-12-07T06:29:39;5.80;99.90
14527;DHT22;7350;51.208;4.238;2022-12-07T06:32:08;5.70;99.90
14527;DHT22;7350;51.208;4.238;2022-12-07T06:34:35;5.90;99.90
14527;DHT22;7350;51.208;4.238;2022-12-07T06:37:02;5.90;99.90
14527;DHT22;7350;51.208;4.238;2022-12-07T06:39:30;6.00;99.90
14527;DHT22;7350;51.208;4.238;2022-12-07T06:41:57;6.10;99.90
14527;DHT22;7350;51.208;4.238;2022-12-07T06:44:24;6.10;99.90
14527;DHT22;7350;51.208;4.238;2022-12-07T06:46:52;6.10;99.90
14527;DHT22;7350;51.208;4.238;2022-12-07T06:49:20;5.80;99.90
14527;DHT22;7350;51.208;4.238;2022-12-07T06:51:47;5.80;99.90
14527;DHT22;7350;51.208;4.238;2022-12-07T06:54:15;5.80;99.90
14527;DHT22;7350;51.208;4.238;2022-12-07T06:56:43;5.70;99.90
14527;DHT22;7350;51.208;4.238;2022-12-07T06:59:10;5.70;99.90
14527;DHT22;7350;51.208;4.238;2022-12-07T07:01:36;5.80;99.90
14527;DHT22;7350;51.208;4.238;2022-12-07T07:04:04;5.60;99.90
14527;DHT22;7350;51.208;4.238;2022-12-07T07:06:32;5.50;99.90
14527;DHT22;7350;51.208;4.238;2022-12-07T07:09:00;5.20;99.90
14527;DHT22;7350;51.208;4.238;2022-12-07T07:11:27;5.10;99.90
14527;DHT22;7350;51.208;4.238;2022-12-07T07:13:54;5.10;99.90
14527;DHT22;7350;51.208;4.238;2022-12-07T07:16:23;5.10;99.90
14527;DHT22;7350;51.208;4.238;2022-12-07T07:18:50;5.10;99.90
14527;DHT22;7350;51.208;4.238;2022-12-07T07:21:17;5.00;99.90
14527;DHT22;7350;51.208;4.238;2022-12-07T07:23:45;5.20;99.90
14527;DHT22;7350;51.208;4.238;2022-12-07T07:26:12;5.30;99.90
14527;DHT22;7350;51.208;4.238;2022-12-07T07:28:39;5.30;99.90
14527;DHT22;7350;51.208;4.238;2022-12-07T07:31:06;5.20;99.90
14527;DHT22;7350;51.208;4.238;2022-12-07T07:33:33;5.30;99.90
14527;DHT22;7350;51.208;4.238;2022-12-07T07:36:00;5.30;99.90
14527;DHT22;7350;51.208;4.238;2022-12-07T07:38:27;5.30;99.90
14527;DHT22;7350;51.208;4.238;2022-12-07T07:40:55;5.30;99.90
14527;DHT22;7350;51.208;4.238;2022-12-07T07:43:22;5.30;99.90
14527;DHT22;7350;51.208;4.238;2022-12-07T07:45:49;5.30;99.90
14527;DHT22;7350;51.208;4.238;2022-12-07T07:48:16;5.50;99.90
14527;DHT22;7350;51.208;4.238;2022-12-07T07:50:43;5.60;99.90
14527;DHT22;7350;51.208;4.238;2022-12-07T07:53:10;5.60;99.90
14527;DHT22;7350;51.208;4.238;2022-12-07T07:55:37;5.60;99.90
14527;DHT22;7350;51.208;4.238;2022-12-07T07:58:06;5.70;99.90
14527;DHT22;7350;51.208;4.238;2022-12-07T08:00:33;5.60;99.90
14527;DHT22;7350;51.208;4.238;2022-12-07T08:03:00;5.30;99.90
14527;DHT22;7350;51.208;4.238;2022-12-07T08:05:27;5.30;99.90
14527;DHT22;7350;51.208;4.238;2022-12-07T08:07:53;5.50;99.90
14527;DHT22;7350;51.208;4.238;2022-12-07T08:10:21;5.60;99.90
14527;DHT22;7350;51.208;4.238;2022-12-07T08:12:48;5.50;99.90
14527;DHT22;7350;51.208;4.238;2022-12-07T08:15:33;5.50;99.90
14527;DHT22;7350;51.208;4.238;2022-12-07T08:18:03;5.30;99.90
14527;DHT22;7350;51.208;4.238;2022-12-07T08:20:30;5.20;99.90
14527;DHT22;7350;51.208;4.238;2022-12-07T08:22:58;5.50;99.90
14527;DHT22;7350;51.208;4.238;2022-12-07T08:25:25;5.80;99.90
14527;DHT22;7350;51.208;4.238;2022-12-07T08:27:52;5.70;99.90
14527;DHT22;7350;51.208;4.238;2022-12-07T08:30:20;5.90;99.90
14527;DHT22;7350;51.208;4.238;2022-12-07T08:32:49;6.00;99.90
14527;DHT22;7350;51.208;4.238;2022-12-07T08:35:16;5.90;99.90
14527;DHT22;7350;51.208;4.238;2022-12-07T08:37:43;6.00;99.90
14527;DHT22;7350;51.208;4.238;2022-12-07T08:40:12;6.10;99.90
14527;DHT22;7350;51.208;4.238;2022-12-07T08:42:41;6.10;99.90
14527;DHT22;7350;51.208;4.238;2022-12-07T08:45:10;6.40;99.90
14527;DHT22;7350;51.208;4.238;2022-12-07T08:47:39;6.30;99.90
14527;DHT22;7350;51.208;4.238;2022-12-07T08:50:10;6.50;99.90
14527;DHT22;7350;51.208;4.238;2022-12-07T08:52:38;6.50;99.90
14527;DHT22;7350;51.208;4.238;2022-12-07T08:55:07;6.50;99.90
14527;DHT22;7350;51.208;4.238;2022-12-07T08:57:36;6.50;99.90
14527;DHT22;7350;51.208;4.238;2022-12-07T09:00:04;6.50;99.90
14527;DHT22;7350;51.208;4.238;2022-12-07T09:02:32;6.40;99.90
14527;DHT22;7350;51.208;4.238;2022-12-07T09:04:59;6.30;99.90
14527;DHT22;7350;51.208;4.238;2022-12-07T09:07:27;6.20;99.90
14527;DHT22;7350;51.208;4.238;2022-12-07T09:09:56;6.10;99.90
14527;DHT22;7350;51.208;4.238;2022-12-07T09:12:23;6.20;99.90
14527;DHT22;7350;51.208;4.238;2022-12-07T09:14:50;6.20;99.90
14527;DHT22;7350;51.208;4.238;2022-12-07T09:17:17;6.30;99.90
14527;DHT22;7350;51.208;4.238;2022-12-07T09:19:44;6.30;99.90
14527;DHT22;7350;51.208;4.238;2022-12-07T09:22:11;6.70;99.90
14527;DHT22;7350;51.208;4.238;2022-12-07T09:24:40;6.90;99.90
14527;DHT22;7350;51.208;4.238;2022-12-07T09:27:07;7.20;99.90
14527;DHT22;7350;51.208;4.238;2022-12-07T09:29:33;7.30;99.90
14527;DHT22;7350;51.208;4.238;2022-12-07T09:32:00;7.50;99.90
14527;DHT22;7350;51.208;4.238;2022-12-07T09:34:30;7.60;99.90
14527;DHT22;7350;51.208;4.238;2022-12-07T09:36:58;7.10;99.90
14527;DHT22;7350;51.208;4.238;2022-12-07T09:39:28;7.10;99.90
14527;DHT22;7350;51.208;4.238;2022-12-07T09:41:57;7.10;99.90
14527;DHT22;7350;51.208;4.238;2022-12-07T09:44:26;7.40;99.90
14527;DHT22;7350;51.208;4.238;2022-12-07T09:46:54;7.50;99.90
14527;DHT22;7350;51.208;4.238;2022-12-07T09:49:23;7.40;99.90
14527;DHT22;7350;51.208;4.238;2022-12-07T09:52:01;7.20;99.90
14527;DHT22;7350;51.208;4.238;2022-12-07T09:54:29;7.20;99.90
14527;DHT22;7350;51.208;4.238;2022-12-07T09:56:58;7.30;99.90
14527;DHT22;7350;51.208;4.238;2022-12-07T09:59:25;7.50;99.90
14527;DHT22;7350;51.208;4.238;2022-12-07T10:01:53;7.70;99.90
14527;DHT22;7350;51.208;4.238;2022-12-07T10:04:22;7.70;99.90
14527;DHT22;7350;51.208;4.238;2022-12-07T10:06:51;7.80;99.90
14527;DHT22;7350;51.208;4.238;2022-12-07T10:09:19;8.00;99.90
14527;DHT22;7350;51.208;4.238;2022-12-07T10:12:03;8.00;99.90
14527;DHT22;7350;51.208;4.238;2022-12-07T10:14:32;8.10;99.90
14527;DHT22;7350;51.208;4.238;2022-12-07T10:16:59;8.00;99.90
14527;DHT22;7350;51.208;4.238;2022-12-07T10:19:28;8.20;99.90
14527;DHT22;7350;51.208;4.238;2022-12-07T10:22:16;8.30;99.90
14527;DHT22;7350;51.208;4.238;2022-12-07T10:24:46;8.30;99.90
14527;DHT22;7350;51.208;4.238;2022-12-07T10:27:20;8.30;99.90
14527;DHT22;7350;51.208;4.238;2022-12-07T10:29:50;8.30;99.90
14527;DHT22;7350;51.208;4.238;2022-12-07T10:32:31;8.30;99.90
14527;DHT22;7350;51.208;4.238;2022-12-07T10:35:20;8.30;99.90
14527;DHT22;7350;51.208;4.238;2022-12-07T10:37:48;8.50;99.90
14527;DHT22;7350;51.208;4.238;2022-12-07T10:40:30;8.50;99.90
14527;DHT22;7350;51.208;4.238;2022-12-07T10:43:17;8.70;99.90
14527;DHT22;7350;51.208;4.238;2022-12-07T10:46:03;8.50;99.90
14527;DHT22;7350;51.208;4.238;2022-12-07T10:48:37;8.10;99.90
14527;DHT22;7350;51.208;4.238;2022-12-07T10:51:13;8.10;99.90
14527;DHT22;7350;51.208;4.238;2022-12-07T10:53:54;8.20;99.90
14527;DHT22;7350;51.208;4.238;2022-12-07T10:56:51;8.30;99.90
14527;DHT22;7350;51.208;4.238;2022-12-07T10:59:45;8.30;99.90
14527;DHT22;7350;51.208;4.238;2022-12-07T11:05:19;8.50;99.90
14527;DHT22;7350;51.208;4.238;2022-12-07T11:07:59;8.40;99.90
14527;DHT22;7350;51.208;4.238;2022-12-07T11:10:33;8.50;99.90
14527;DHT22;7350;51.208;4.238;2022-12-07T11:13:19;8.70;99.90
14527;DHT22;7350;51.208;4.238;2022-12-07T11:16:14;8.70;99.90
14527;DHT22;7350;51.208;4.238;2022-12-07T11:18:51;8.50;99.90
14527;DHT22;7350;51.208;4.238;2022-12-07T11:21:27;8.50;99.90
14527;DHT22;7350;51.208;4.238;2022-12-07T11:24:02;8.50;99.90
14527;DHT22;7350;51.208;4.238;2022-12-07T11:26:40;8.60;99.90
14527;DHT22;7350;51.208;4.238;2022-12-07T11:29:26;8.70;99.90
14527;DHT22;7350;51.208;4.238;2022-12-07T11:32:04;8.60;99.90
14527;DHT22;7350;51.208;4.238;2022-12-07T11:34:38;8.50;99.90
14527;DHT22;7350;51.208;4.238;2022-12-07T11:37:10;8.60;99.90
14527;DHT22;7350;51.208;4.238;2022-12-07T11:39:43;8.60;99.90
14527;DHT22;7350;51.208;4.238;2022-12-07T11:42:15;8.80;99.90
14527;DHT22;7350;51.208;4.238;2022-12-07T11:44:49;8.90;99.90
14527;DHT22;7350;51.208;4.238;2022-12-07T11:47:25;8.90;99.90
14527;DHT22;7350;51.208;4.238;2022-12-07T11:49:54;9.00;99.90
14527;DHT22;7350;51.208;4.238;2022-12-07T11:52:27;9.20;99.90
14527;DHT22;7350;51.208;4.238;2022-12-07T11:54:58;9.40;99.90
14527;DHT22;7350;51.208;4.238;2022-12-07T11:57:32;9.30;99.90
14527;DHT22;7350;51.208;4.238;2022-12-07T12:00:05;9.20;99.90
14527;DHT22;7350;51.208;4.238;2022-12-07T12:02:39;9.10;99.90
14527;DHT22;7350;51.208;4.238;2022-12-07T12:05:15;8.90;99.90
14527;DHT22;7350;51.208;4.238;2022-12-07T12:07:44;8.60;99.90
14527;DHT22;7350;51.208;4.238;2022-12-07T12:10:19;8.70;99.90
14527;DHT22;7350;51.208;4.238;2022-12-07T12:13:03;9.10;99.90
14527;DHT22;7350;51.208;4.238;2022-12-07T12:15:51;8.90;99.90
14527;DHT22;7350;51.208;4.238;2022-12-07T12:18:33;9.10;99.90
14527;DHT22;7350;51.208;4.238;2022-12-07T12:21:04;9.00;99.90
14527;DHT22;7350;51.208;4.238;2022-12-07T12:23:38;8.60;99.90
14527;DHT22;7350;51.208;4.238;2022-12-07T12:26:09;8.70;99.90
14527;DHT22;7350;51.208;4.238;2022-12-07T12:28:42;9.00;99.90
14527;DHT22;7350;51.208;4.238;2022-12-07T12:31:31;9.00;99.90
14527;DHT22;7350;51.208;4.238;2022-12-07T12:34:03;9.10;99.90
14527;DHT22;7350;51.208;4.238;2022-12-07T12:36:52;9.30;99.90
14527;DHT22;7350;51.208;4.238;2022-12-07T12:39:19;9.30;99.90
14527;DHT22;7350;51.208;4.238;2022-12-07T12:41:57;9.40;99.90
14527;DHT22;7350;51.208;4.238;2022-12-07T12:45:05;9.40;99.90
14527;DHT22;7350;51.208;4.238;2022-12-07T12:47:41;9.30;99.90
14527;DHT22;7350;51.208;4.238;2022-12-07T12:50:17;9.30;99.90
14527;DHT22;7350;51.208;4.238;2022-12-07T12:53:03;9.30;99.90
14527;DHT22;7350;51.208;4.238;2022-12-07T12:58:40;9.30;99.90
14527;DHT22;7350;51.208;4.238;2022-12-07T13:04:36;8.50;99.90
14527;DHT22;7350;51.208;4.238;2022-12-07T13:07:12;7.50;99.90
14527;DHT22;7350;51.208;4.238;2022-12-07T13:09:43;7.30;99.90
14527;DHT22;7350;51.208;4.238;2022-12-07T13:12:16;7.40;99.90
14527;DHT22;7350;51.208;4.238;2022-12-07T13:14:54;7.60;99.90
14527;DHT22;7350;51.208;4.238;2022-12-07T13:18:00;7.60;99.90
14527;DHT22;7350;51.208;4.238;2022-12-07T13:20:51;7.60;99.90
14527;DHT22;7350;51.208;4.238;2022-12-07T13:23:29;7.80;99.90
14527;DHT22;7350;51.208;4.238;2022-12-07T13:26:04;7.90;99.90
14527;DHT22;7350;51.208;4.238;2022-12-07T13:28:37;7.90;99.90
14527;DHT22;7350;51.208;4.238;2022-12-07T13:31:22;7.80;99.90
14527;DHT22;7350;51.208;4.238;2022-12-07T13:33:50;7.80;99.90
14527;DHT22;7350;51.208;4.238;2022-12-07T13:36:22;7.90;99.90
14527;DHT22;7350;51.208;4.238;2022-12-07T13:38:56;8.00;99.90
14527;DHT22;7350;51.208;4.238;2022-12-07T13:41:25;8.00;99.90
14527;DHT22;7350;51.208;4.238;2022-12-07T13:44:03;8.10;99.90
14527;DHT22;7350;51.208;4.238;2022-12-07T13:46:42;8.10;99.90
14527;DHT22;7350;51.208;4.238;2022-12-07T13:49:22;7.90;99.90
14527;DHT22;7350;51.208;4.238;2022-12-07T13:51:50;7.90;99.90
14527;DHT22;7350;51.208;4.238;2022-12-07T13:54:19;7.90;99.90
14527;DHT22;7350;51.208;4.238;2022-12-07T13:56:50;7.90;99.90
14527;DHT22;7350;51.208;4.238;2022-12-07T13:59:19;7.90;99.90
14527;DHT22;7350;51.208;4.238;2022-12-07T14:01:49;7.70;99.90
14527;DHT22;7350;51.208;4.238;2022-12-07T14:04:18;7.80;99.90
14527;DHT22;7350;51.208;4.238;2022-12-07T14:06:50;8.10;99.90
14527;DHT22;7350;51.208;4.238;2022-12-07T14:09:20;8.00;99.90
14527;DHT22;7350;51.208;4.238;2022-12-07T14:11:49;8.00;99.90
14527;DHT22;7350;51.208;4.238;2022-12-07T14:14:19;8.00;99.90
14527;DHT22;7350;51.208;4.238;2022-12-07T14:16:59;7.90;99.90
14527;DHT22;7350;51.208;4.238;2022-12-07T14:19:48;7.70;99.90
14527;DHT22;7350;51.208;4.238;2022-12-07T14:22:24;7.50;99.90
14527;DHT22;7350;51.208;4.238;2022-12-07T14:24:58;7.50;99.90
14527;DHT22;7350;51.208;4.238;2022-12-07T14:27:31;7.60;99.90
14527;DHT22;7350;51.208;4.238;2022-12-07T14:29:59;7.60;99.90
14527;DHT22;7350;51.208;4.238;2022-12-07T14:32:28;7.80;99.90
14527;DHT22;7350;51.208;4.238;2022-12-07T14:35:00;7.80;99.90
14527;DHT22;7350;51.208;4.238;2022-12-07T14:37:30;7.70;99.90
14527;DHT22;7350;51.208;4.238;2022-12-07T14:39:58;7.70;99.90
14527;DHT22;7350;51.208;4.238;2022-12-07T14:42:28;7.60;99.90
14527;DHT22;7350;51.208;4.238;2022-12-07T14:44:55;7.70;99.90
14527;DHT22;7350;51.208;4.238;2022-12-07T14:47:22;7.60;99.90
14527;DHT22;7350;51.208;4.238;2022-12-07T14:49:50;7.50;99.90
14527;DHT22;7350;51.208;4.238;2022-12-07T14:52:19;7.60;99.90
14527;DHT22;7350;51.208;4.238;2022-12-07T14:54:48;7.40;99.90
14527;DHT22;7350;51.208;4.238;2022-12-07T14:57:17;7.40;99.90
14527;DHT22;7350;51.208;4.238;2022-12-07T14:59:44;7.20;99.90
14527;DHT22;7350;51.208;4.238;2022-12-07T15:02:12;7.20;99.90
14527;DHT22;7350;51.208;4.238;2022-12-07T15:04:39;7.00;99.90
14527;DHT22;7350;51.208;4.238;2022-12-07T15:07:13;7.10;99.90
14527;DHT22;7350;51.208;4.238;2022-12-07T15:09:41;7.30;99.90
14527;DHT22;7350;51.208;4.238;2022-12-07T15:12:08;7.40;99.90
14527;DHT22;7350;51.208;4.238;2022-12-07T15:14:36;7.50;99.90
14527;DHT22;7350;51.208;4.238;2022-12-07T15:17:03;7.40;99.90
14527;DHT22;7350;51.208;4.238;2022-12-07T15:19:30;7.30;99.90
14527;DHT22;7350;51.208;4.238;2022-12-07T15:21:58;7.20;99.90
14527;DHT22;7350;51.208;4.238;2022-12-07T15:24:26;7.10;99.90
14527;DHT22;7350;51.208;4.238;2022-12-07T15:26:53;7.20;99.90
14527;DHT22;7350;51.208;4.238;2022-12-07T15:29:20;7.20;99.90
14527;DHT22;7350;51.208;4.238;2022-12-07T15:31:49;7.30;99.90
14527;DHT22;7350;51.208;4.238;2022-12-07T15:34:16;7.30;99.90
14527;DHT22;7350;51.208;4.238;2022-12-07T15:36:43;7.30;99.90
14527;DHT22;7350;51.208;4.238;2022-12-07T15:39:10;7.50;99.90
14527;DHT22;7350;51.208;4.238;2022-12-07T15:41:38;7.40;99.90
14527;DHT22;7350;51.208;4.238;2022-12-07T15:44:05;7.20;99.90
14527;DHT22;7350;51.208;4.238;2022-12-07T15:46:51;7.20;99.90
14527;DHT22;7350;51.208;4.238;2022-12-07T15:49:18;7.20;99.90
14527;DHT22;7350;51.208;4.238;2022-12-07T15:51:46;7.30;99.90
14527;DHT22;7350;51.208;4.238;2022-12-07T15:54:18;7.20;99.90
14527;DHT22;7350;51.208;4.238;2022-12-07T15:56:46;7.00;99.90
14527;DHT22;7350;51.208;4.238;2022-12-07T15:59:13;6.90;99.90
14527;DHT22;7350;51.208;4.238;2022-12-07T16:01:40;7.10;99.90
14527;DHT22;7350;51.208;4.238;2022-12-07T16:04:09;7.20;99.90
14527;DHT22;7350;51.208;4.238;2022-12-07T16:06:36;7.20;99.90
14527;DHT22;7350;51.208;4.238;2022-12-07T16:09:03;7.00;99.90
14527;DHT22;7350;51.208;4.238;2022-12-07T16:11:31;7.10;99.90
14527;DHT22;7350;51.208;4.238;2022-12-07T16:13:58;7.10;99.90
14527;DHT22;7350;51.208;4.238;2022-12-07T16:16:26;7.50;99.90
14527;DHT22;7350;51.208;4.238;2022-12-07T16:18:53;7.40;99.90
14527;DHT22;7350;51.208;4.238;2022-12-07T16:21:21;7.40;99.90
14527;DHT22;7350;51.208;4.238;2022-12-07T16:23:48;7.30;99.90
14527;DHT22;7350;51.208;4.238;2022-12-07T16:26:17;7.40;99.90
14527;DHT22;7350;51.208;4.238;2022-12-07T16:28:44;7.40;99.90
14527;DHT22;7350;51.208;4.238;2022-12-07T16:31:13;7.30;99.90
14527;DHT22;7350;51.208;4.238;2022-12-07T16:33:42;7.10;99.90